Time;durP1;ratioP1;P1;durP2;ratioP2;P2;SDS_P1;SDS_P2;PMS_P1;PMS_P2;Temp;Humidity;BMP_temperature;BMP_pressure;BME280_temperature;BME280_humidity;BME280_pressure;Samples;Min_cycle;Max_cycle;Signal;HPM_P1;HPM_P2
2023/02/11 00:02:12;;;;;;;;;;;;;;;;;;6154808;23;19936;-80
2023/02/11 00:04:38;;;;;;;;;;;;;;;;;;6152971;23;19915;-77
2023/02/11 00:07:03;;;;;;;;;;;;;;;;;;6128316;23;19935;-78
2023/02/11 00:09:29;;;;;;;;;;;;;;;;;;6170009;23;19914;-83
2023/02/11 00:11:54;;;;;;;;;;;;;;;;;;6151089;23;20355;-80
2023/02/11 00:14:19;;;;;;;;;;;;;;;;;;6156117;23;19951;-77
2023/02/11 00:16:45;;;;;;;;;;;;;;;;;;6156638;23;19955;-79
2023/02/11 00:19:10;;;;;;;;;;;;;;;;;;6153095;23;19909;-78
2023/02/11 00:21:36;;;;;;;;;;;;;;;;;;6128735;23;20362;-78
2023/02/11 00:24:01;;;;;;;;;;;;;;;;;;6154667;23;20394;-78
2023/02/11 00:26:27;;;;;;;;;;;;;;;;;;6154550;23;19940;-79
2023/02/11 00:28:52;;;;;;;;;;;;;;;;;;6155022;23;19904;-78
2023/02/11 00:31:17;;;;;;;;;;;;;;;;;;6153407;23;19912;-78
2023/02/11 00:33:43;;;;;;;;;;;;;;;;;;6153604;23;19909;-77
2023/02/11 00:36:08;;;;;;;;;;;;;;;;;;6153462;23;20393;-78
2023/02/11 00:38:34;;;;;;;;;;;;;;;;;;6154782;23;19909;-77
2023/02/11 00:40:59;;;;;;;;;;;;;;;;;;6153697;23;20242;-77
2023/02/11 00:43:25;;;;;;;;;;;;;;;;;;6128722;23;19932;-78
2023/02/11 00:45:50;;;;;;;;;;;;;;;;;;6152708;23;19996;-79
2023/02/11 00:48:15;;;;;;;;;;;;;;;;;;6153333;23;19916;-79
2023/02/11 00:50:41;;;;;;;;;;;;;;;;;;6128845;23;19908;-80
2023/02/11 00:53:06;;;;;;;;;;;;;;;;;;6154047;23;19915;-78
2023/02/11 00:55:32;;;;;;;;;;;;;;;;;;6153007;23;20294;-80
2023/02/11 00:57:58;;;;;;;;;;;;;;;;;;6153483;23;20254;-79
2023/02/11 01:00:24;;;;;;;;;;;;;;;;;;6153797;23;19909;-78
2023/02/11 01:02:49;;;;;;;;;;;;;;;;;;6104764;23;19934;-77
2023/02/11 01:05:15;;;;;;;;;;;;;;;;;;6153050;23;19908;-78
2023/02/11 01:07:40;;;;;;;;;;;;;;;;;;6152679;23;19920;-78
2023/02/11 01:10:05;;;;;;;;;;;;;;;;;;6104294;23;19915;-79
2023/02/11 01:12:31;;;;;;;;;;;;;;;;;;6104343;23;19909;-80
2023/02/11 01:14:56;;;;;;;;;;;;;;;;;;6154520;23;19909;-79
2023/02/11 01:17:22;;;;;;;;;;;;;;;;;;6153891;23;19915;-78
2023/02/11 01:19:48;;;;;;;;;;;;;;;;;;6155323;23;19909;-80
2023/02/11 01:22:14;;;;;;;;;;;;;;;;;;6153888;23;19924;-79
2023/02/11 01:24:39;;;;;;;;;;;;;;;;;;6152442;23;20378;-79
2023/02/11 01:27:06;;;;;;;;;;;;;;;;;;6153634;23;19908;-79
2023/02/11 01:29:32;;;;;;;;;;;;;;;;;;6153162;23;20373;-79
2023/02/11 01:31:57;;;;;;;;;;;;;;;;;;6153108;23;19995;-79
2023/02/11 01:34:24;;;;;;;;;;;;;;;;;;6154642;23;19904;-78
2023/02/11 01:36:49;;;;;;;;;;;;;;;;;;6130006;23;19932;-79
2023/02/11 01:39:15;;;;;;;;;;;;;;;;;;6156248;23;20357;-79
2023/02/11 01:41:40;;;;;;;;;;;;;;;;;;6156073;23;19912;-78
2023/02/11 01:44:06;;;;;;;;;;;;;;;;;;6156731;23;19909;-78
2023/02/11 01:46:31;;;;;;;;;;;;;;;;;;6156609;23;20330;-79
2023/02/11 01:48:57;;;;;;;;;;;;;;;;;;6159173;23;19912;-78
2023/02/11 01:51:22;;;;;;;;;;;;;;;;;;6162228;23;19923;-79
2023/02/11 01:59:20;;;;;;;;;;;;;;;;;;6122794;23;19914;-78
2023/02/11 02:01:45;;;;;;;;;;;;;;;;;;6155589;23;19920;-78
2023/02/11 02:04:11;;;;;;;;;;;;;;;;;;6175691;23;19915;-78
2023/02/11 02:06:36;;;;;;;;;;;;;;;;;;6164465;23;19909;-77
2023/02/11 02:09:01;;;;;;;;;;;;;;;;;;6133184;23;20396;-78
2023/02/11 02:11:27;;;;;;;;;;;;;;;;;;6159035;23;19971;-78
2023/02/11 02:13:53;;;;;;;;;;;;;;;;;;6156889;23;19948;-77
2023/02/11 02:16:19;;;;;;;;;;;;;;;;;;6129889;23;19908;-79
2023/02/11 02:18:44;;;;;;;;;;;;;;;;;;6156545;23;19916;-78
2023/02/11 02:21:10;;;;;;;;;;;;;;;;;;6156141;23;20362;-77
2023/02/11 02:23:35;;;;;;;;;;;;;;;;;;6156050;23;19909;-77
2023/02/11 02:26:00;;;;;;;;;;;;;;;;;;6155979;23;19913;-78
2023/02/11 02:28:26;;;;;;;;;;;;;;;;;;6155029;23;19909;-78
2023/02/11 02:30:51;;;;;;;;;;;;;;;;;;6157676;23;20254;-77
2023/02/11 02:33:16;;;;;;;;;;;;;;;;;;6106761;23;19980;-77
2023/02/11 02:35:42;;;;;;;;;;;;;;;;;;6158483;23;19915;-78
2023/02/11 02:38:07;;;;;;;;;;;;;;;;;;6158991;23;19909;-77
2023/02/11 02:40:33;;;;;;;;;;;;;;;;;;6158352;23;19915;-78
2023/02/11 02:42:58;;;;;;;;;;;;;;;;;;6157623;23;19915;-78
2023/02/11 02:45:23;;;;;;;;;;;;;;;;;;6157489;23;19908;-79
2023/02/11 02:47:49;;;;;;;;;;;;;;;;;;6157610;23;19984;-77
2023/02/11 02:50:14;;;;;;;;;;;;;;;;;;6154639;23;20323;-79
2023/02/11 02:52:39;;;;;;;;;;;;;;;;;;6155710;23;19916;-77
2023/02/11 02:55:05;;;;;;;;;;;;;;;;;;6155621;23;19908;-76
2023/02/11 02:57:30;;;;;;;;;;;;;;;;;;6155600;23;19984;-77
2023/02/11 02:59:56;;;;;;;;;;;;;;;;;;6154785;23;19915;-78
2023/02/11 03:02:22;;;;;;;;;;;;;;;;;;6156259;23;20358;-77
2023/02/11 03:04:47;;;;;;;;;;;;;;;;;;6154183;23;19913;-77
2023/02/11 03:07:13;;;;;;;;;;;;;;;;;;6129292;23;19909;-77
2023/02/11 03:09:38;;;;;;;;;;;;;;;;;;6156240;23;19908;-78
2023/02/11 03:12:03;;;;;;;;;;;;;;;;;;6154707;23;19919;-78
2023/02/11 03:14:29;;;;;;;;;;;;;;;;;;6156201;23;19915;-77
2023/02/11 03:16:54;;;;;;;;;;;;;;;;;;6155666;23;19916;-78
2023/02/11 03:19:20;;;;;;;;;;;;;;;;;;6131510;23;19909;-77
2023/02/11 03:21:45;;;;;;;;;;;;;;;;;;6156793;23;20326;-78
2023/02/11 03:24:11;;;;;;;;;;;;;;;;;;6156581;23;20027;-78
2023/02/11 03:26:36;;;;;;;;;;;;;;;;;;6156851;23;20239;-77
2023/02/11 03:29:02;;;;;;;;;;;;;;;;;;6157496;23;19916;-77
2023/02/11 03:31:28;;;;;;;;;;;;;;;;;;6155015;23;19963;-78
2023/02/11 03:33:53;;;;;;;;;;;;;;;;;;6154435;23;19944;-78
2023/02/11 03:36:18;;;;;;;;;;;;;;;;;;6155628;23;19909;-79
2023/02/11 03:38:44;;;;;;;;;;;;;;;;;;6154315;23;19909;-78
2023/02/11 03:41:09;;;;;;;;;;;;;;;;;;6155494;23;19912;-78
2023/02/11 03:43:34;;;;;;;;;;;;;;;;;;6155741;23;19936;-78
2023/02/11 03:46:00;;;;;;;;;;;;;;;;;;6154554;23;20223;-77
2023/02/11 03:48:25;;;;;;;;;;;;;;;;;;6156910;23;19909;-77
2023/02/11 03:50:50;;;;;;;;;;;;;;;;;;6156278;23;20353;-78
2023/02/11 03:53:16;;;;;;;;;;;;;;;;;;6156257;23;19943;-78
2023/02/11 03:55:41;;;;;;;;;;;;;;;;;;6156574;23;20244;-78
2023/02/11 03:58:06;;;;;;;;;;;;;;;;;;6156417;23;19924;-77
2023/02/11 04:00:32;;;;;;;;;;;;;;;;;;6156342;23;19935;-78
2023/02/11 04:02:57;;;;;;;;;;;;;;;;;;6130677;23;19908;-77
2023/02/11 04:05:23;;;;;;;;;;;;;;;;;;6154952;23;19987;-78
2023/02/11 04:07:48;;;;;;;;;;;;;;;;;;6157010;23;19908;-78
2023/02/11 04:10:14;;;;;;;;;;;;;;;;;;6155245;23;19908;-78
2023/02/11 04:12:39;;;;;;;;;;;;;;;;;;6156912;23;19917;-78
2023/02/11 04:15:04;;;;;;;;;;;;;;;;;;6156889;23;19912;-78
2023/02/11 04:17:30;;;;;;;;;;;;;;;;;;6155814;23;19959;-77
2023/02/11 04:19:55;;;;;;;;;;;;;;;;;;6156905;23;19955;-78
2023/02/11 04:22:21;;;;;;;;;;;;;;;;;;6158471;23;19908;-79
2023/02/11 04:24:46;;;;;;;;;;;;;;;;;;6158582;23;19920;-76
2023/02/11 04:27:11;;;;;;;;;;;;;;;;;;6134113;23;19908;-78
2023/02/11 04:29:37;;;;;;;;;;;;;;;;;;6156867;23;19916;-78
2023/02/11 04:32:02;;;;;;;;;;;;;;;;;;6158182;23;19912;-78
2023/02/11 04:34:28;;;;;;;;;;;;;;;;;;6157180;23;19915;-78
2023/02/11 04:36:53;;;;;;;;;;;;;;;;;;6159656;23;19908;-77
2023/02/11 04:39:18;;;;;;;;;;;;;;;;;;6134230;23;19917;-77
2023/02/11 04:41:44;;;;;;;;;;;;;;;;;;6157959;23;20361;-77
2023/02/11 04:44:09;;;;;;;;;;;;;;;;;;6134192;23;19913;-78
2023/02/11 04:46:35;;;;;;;;;;;;;;;;;;6157560;23;19905;-78
2023/02/11 04:49:00;;;;;;;;;;;;;;;;;;6156855;23;19951;-76
2023/02/11 04:51:25;;;;;;;;;;;;;;;;;;6158488;23;19913;-78
2023/02/11 04:53:51;;;;;;;;;;;;;;;;;;6135305;23;20313;-78
2023/02/11 04:56:16;;;;;;;;;;;;;;;;;;6160068;23;20338;-78
2023/02/11 04:58:41;;;;;;;;;;;;;;;;;;6136557;23;19908;-77
2023/02/11 05:01:07;;;;;;;;;;;;;;;;;;6161836;23;19916;-76
2023/02/11 05:03:32;;;;;;;;;;;;;;;;;;6159783;23;19908;-79
2023/02/11 05:05:58;;;;;;;;;;;;;;;;;;6159694;23;19909;-77
2023/02/11 05:08:23;;;;;;;;;;;;;;;;;;6161610;23;19979;-78
2023/02/11 05:10:49;;;;;;;;;;;;;;;;;;6138128;23;19917;-79
2023/02/11 05:13:14;;;;;;;;;;;;;;;;;;6139460;23;20250;-76
2023/02/11 05:15:39;;;;;;;;;;;;;;;;;;6166359;23;19916;-78
2023/02/11 05:18:05;;;;;;;;;;;;;;;;;;6165914;23;20255;-78
2023/02/11 05:20:30;;;;;;;;;;;;;;;;;;6168096;23;19908;-78
2023/02/11 05:22:55;;;;;;;;;;;;;;;;;;6167346;23;19956;-78
2023/02/11 05:25:21;;;;;;;;;;;;;;;;;;6169482;23;19921;-79
2023/02/11 05:27:47;;;;;;;;;;;;;;;;;;6154853;23;19900;-78
2023/02/11 05:30:12;;;;;;;;;;;;;;;;;;6129081;23;19915;-79
2023/02/11 05:32:38;;;;;;;;;;;;;;;;;;6128234;23;19932;-78
2023/02/11 05:35:03;;;;;;;;;;;;;;;;;;6176094;23;19921;-78
2023/02/11 05:37:29;;;;;;;;;;;;;;;;;;6150963;23;20275;-79
2023/02/11 05:39:55;;;;;;;;;;;;;;;;;;6177080;23;19916;-79
2023/02/11 05:42:20;;;;;;;;;;;;;;;;;;6153946;23;19909;-78
2023/02/11 05:44:46;;;;;;;;;;;;;;;;;;6179245;23;19908;-78
2023/02/11 05:47:12;;;;;;;;;;;;;;;;;;6178244;23;19909;-79
2023/02/11 05:49:37;;;;;;;;;;;;;;;;;;6177861;23;19969;-78
2023/02/11 05:52:03;;;;;;;;;;;;;;;;;;6126027;23;19919;-78
2023/02/11 05:54:28;;;;;;;;;;;;;;;;;;6171575;23;19909;-78
2023/02/11 05:56:54;;;;;;;;;;;;;;;;;;6142409;23;19932;-78
2023/02/11 05:59:19;;;;;;;;;;;;;;;;;;6168541;23;19932;-77
2023/02/11 06:01:45;;;;;;;;;;;;;;;;;;6147424;23;19948;-78
2023/02/11 06:04:11;;;;;;;;;;;;;;;;;;6150811;23;20116;-78
2023/02/11 06:06:36;;;;;;;;;;;;;;;;;;6123281;23;19932;-78
2023/02/11 06:09:02;;;;;;;;;;;;;;;;;;6123052;23;19908;-78
2023/02/11 06:11:27;;;;;;;;;;;;;;;;;;6172527;23;19916;-78
2023/02/11 06:13:53;;;;;;;;;;;;;;;;;;6170050;23;19912;-79
2023/02/11 06:16:19;;;;;;;;;;;;;;;;;;6142826;23;19909;-79
2023/02/11 06:18:44;;;;;;;;;;;;;;;;;;6116341;23;19921;-78
2023/02/11 06:21:10;;;;;;;;;;;;;;;;;;6164141;23;19932;-78
2023/02/11 06:23:35;;;;;;;;;;;;;;;;;;6139281;23;19962;-79
2023/02/11 06:26:01;;;;;;;;;;;;;;;;;;6139285;23;19913;-79
2023/02/11 06:28:26;;;;;;;;;;;;;;;;;;6143102;23;19923;-79
2023/02/11 06:30:52;;;;;;;;;;;;;;;;;;6116350;23;19960;-78
2023/02/11 06:33:17;;;;;;;;;;;;;;;;;;6165665;23;19909;-79
2023/02/11 06:35:43;;;;;;;;;;;;;;;;;;6142672;23;19948;-78
2023/02/11 06:38:09;;;;;;;;;;;;;;;;;;6146190;23;19992;-78
2023/02/11 06:40:34;;;;;;;;;;;;;;;;;;6172202;23;19976;-78
2023/02/11 06:42:59;;;;;;;;;;;;;;;;;;6123730;23;19909;-78
2023/02/11 06:45:25;;;;;;;;;;;;;;;;;;6144627;23;19936;-78
2023/02/11 06:47:51;;;;;;;;;;;;;;;;;;6168593;23;19909;-78
2023/02/11 06:50:17;;;;;;;;;;;;;;;;;;6171298;23;19936;-78
2023/02/11 06:52:42;;;;;;;;;;;;;;;;;;6147776;23;19913;-78
2023/02/11 06:55:08;;;;;;;;;;;;;;;;;;6144388;23;19952;-78
2023/02/11 06:57:33;;;;;;;;;;;;;;;;;;6118535;23;19913;-78
2023/02/11 06:59:59;;;;;;;;;;;;;;;;;;6144043;23;19908;-78
2023/02/11 07:02:26;;;;;;;;;;;;;;;;;;6117674;23;19908;-78
2023/02/11 07:04:52;;;;;;;;;;;;;;;;;;6140128;23;19991;-78
2023/02/11 07:07:18;;;;;;;;;;;;;;;;;;6145410;23;19963;-78
2023/02/11 07:09:43;;;;;;;;;;;;;;;;;;6145670;23;19912;-78
2023/02/11 07:12:09;;;;;;;;;;;;;;;;;;6144282;23;19943;-78
2023/02/11 07:14:35;;;;;;;;;;;;;;;;;;6145928;23;20341;-78
2023/02/11 07:17:00;;;;;;;;;;;;;;;;;;6121202;23;19909;-78
2023/02/11 07:19:26;;;;;;;;;;;;;;;;;;6170579;23;19924;-78
2023/02/11 07:21:51;;;;;;;;;;;;;;;;;;6166362;23;19915;-78
2023/02/11 07:24:17;;;;;;;;;;;;;;;;;;6118445;23;20339;-78
2023/02/11 07:26:43;;;;;;;;;;;;;;;;;;6166088;23;19912;-79
2023/02/11 07:29:09;;;;;;;;;;;;;;;;;;6169397;23;19915;-78
2023/02/11 07:31:34;;;;;;;;;;;;;;;;;;6168108;23;19912;-78
2023/02/11 07:34:00;;;;;;;;;;;;;;;;;;6142531;23;19932;-78
2023/02/11 07:36:26;;;;;;;;;;;;;;;;;;6167585;23;19915;-78
2023/02/11 07:38:51;;;;;;;;;;;;;;;;;;6140572;23;19931;-78
2023/02/11 07:41:16;;;;;;;;;;;;;;;;;;6140149;23;20299;-78
2023/02/11 07:43:42;;;;;;;;;;;;;;;;;;6167093;23;19905;-77
2023/02/11 07:46:10;;;;;;;;;;;;;;;;;;6163972;23;19983;-78
2023/02/11 07:48:36;;;;;;;;;;;;;;;;;;6165493;23;19931;-79
2023/02/11 07:51:01;;;;;;;;;;;;;;;;;;6113238;23;20334;-79
2023/02/11 07:53:27;;;;;;;;;;;;;;;;;;6161436;23;19990;-79
2023/02/11 07:55:52;;;;;;;;;;;;;;;;;;6162544;23;20309;-79
2023/02/11 07:58:18;;;;;;;;;;;;;;;;;;6160169;23;20250;-79
2023/02/11 08:00:44;;;;;;;;;;;;;;;;;;6134750;23;20354;-79
2023/02/11 08:03:10;;;;;;;;;;;;;;;;;;6137915;23;19909;-79
2023/02/11 08:05:35;;;;;;;;;;;;;;;;;;6165398;23;19915;-79
2023/02/11 08:08:01;;;;;;;;;;;;;;;;;;6167114;23;19932;-79
2023/02/11 08:10:26;;;;;;;;;;;;;;;;;;6146002;23;19909;-79
2023/02/11 08:12:53;;;;;;;;;;;;;;;;;;6165699;23;20334;-79
2023/02/11 08:15:19;;;;;;;;;;;;;;;;;;6165783;23;19985;-79
2023/02/11 08:17:44;;;;;;;;;;;;;;;;;;6168496;23;19908;-79
2023/02/11 08:20:10;;;;;;;;;;;;;;;;;;6142914;23;19908;-79
2023/02/11 08:22:36;;;;;;;;;;;;;;;;;;6144320;23;19915;-79
2023/02/11 08:25:01;;;;;;;;;;;;;;;;;;6163172;23;19940;-78
2023/02/11 08:27:27;;;;;;;;;;;;;;;;;;6168510;23;19950;-78
2023/02/11 08:29:52;;;;;;;;;;;;;;;;;;6170306;23;19909;-78
2023/02/11 08:32:18;;;;;;;;;;;;;;;;;;6144919;23;20239;-78
2023/02/11 08:34:44;;;;;;;;;;;;;;;;;;6169100;23;20223;-78
2023/02/11 08:37:09;;;;;;;;;;;;;;;;;;6174532;23;19908;-79
2023/02/11 08:39:35;;;;;;;;;;;;;;;;;;6172188;23;19932;-79
2023/02/11 08:42:01;;;;;;;;;;;;;;;;;;6147435;23;20210;-79
2023/02/11 08:44:26;;;;;;;;;;;;;;;;;;6169129;23;20253;-79
2023/02/11 08:46:52;;;;;;;;;;;;;;;;;;6167403;23;19931;-78
2023/02/11 08:49:21;;;;;;;;;;;;;;;;;;6163817;23;19971;-79
2023/02/11 08:51:46;;;;;;;;;;;;;;;;;;6163798;23;19912;-78
2023/02/11 08:54:12;;;;;;;;;;;;;;;;;;6138779;23;19932;-79
2023/02/11 08:56:37;;;;;;;;;;;;;;;;;;6159866;23;19912;-78
2023/02/11 08:59:03;;;;;;;;;;;;;;;;;;6161346;23;19912;-78
2023/02/11 09:01:28;;;;;;;;;;;;;;;;;;6137746;23;19995;-78
2023/02/11 09:03:54;;;;;;;;;;;;;;;;;;6136817;23;19909;-78
2023/02/11 09:06:19;;;;;;;;;;;;;;;;;;6164727;23;19912;-78
2023/02/11 09:08:45;;;;;;;;;;;;;;;;;;6167249;23;19936;-78
2023/02/11 09:11:10;;;;;;;;;;;;;;;;;;6167753;23;19912;-78
2023/02/11 09:13:36;;;;;;;;;;;;;;;;;;6142590;23;19915;-78
2023/02/11 09:16:01;;;;;;;;;;;;;;;;;;6144968;23;19905;-79
2023/02/11 09:18:27;;;;;;;;;;;;;;;;;;6168618;23;19979;-78
2023/02/11 09:20:53;;;;;;;;;;;;;;;;;;6166071;23;19909;-78
2023/02/11 09:23:18;;;;;;;;;;;;;;;;;;6166048;23;19919;-78
2023/02/11 09:25:44;;;;;;;;;;;;;;;;;;6110810;23;19924;-78
2023/02/11 09:28:10;;;;;;;;;;;;;;;;;;6136537;23;20285;-78
2023/02/11 09:30:35;;;;;;;;;;;;;;;;;;6158827;23;19916;-77
2023/02/11 09:33:01;;;;;;;;;;;;;;;;;;6160825;23;19912;-78
2023/02/11 09:35:26;;;;;;;;;;;;;;;;;;6137007;23;19908;-79
2023/02/11 09:37:52;;;;;;;;;;;;;;;;;;6115425;23;19915;-78
2023/02/11 09:40:18;;;;;;;;;;;;;;;;;;6140272;23;19908;-78
2023/02/11 09:42:44;;;;;;;;;;;;;;;;;;6169527;23;19951;-79
2023/02/11 09:45:10;;;;;;;;;;;;;;;;;;6147287;23;19908;-81
2023/02/11 09:47:36;;;;;;;;;;;;;;;;;;6153624;23;20327;-80
2023/02/11 09:50:02;;;;;;;;;;;;;;;;;;6178392;23;19939;-82
2023/02/11 09:52:27;;;;;;;;;;;;;;;;;;6173393;23;19912;-80
2023/02/11 09:54:53;;;;;;;;;;;;;;;;;;6145968;23;19956;-81
2023/02/11 09:57:19;;;;;;;;;;;;;;;;;;6170249;23;19992;-80
2023/02/11 09:59:44;;;;;;;;;;;;;;;;;;6149372;23;19948;-80
2023/02/11 10:02:10;;;;;;;;;;;;;;;;;;6145921;23;19905;-81
2023/02/11 10:04:35;;;;;;;;;;;;;;;;;;6138048;23;19909;-80
2023/02/11 10:07:01;;;;;;;;;;;;;;;;;;6162196;23;19916;-80
2023/02/11 10:09:27;;;;;;;;;;;;;;;;;;6136364;23;19928;-80
2023/02/11 10:11:54;;;;;;;;;;;;;;;;;;6112847;23;20331;-80
2023/02/11 10:14:20;;;;;;;;;;;;;;;;;;6113806;23;19915;-80
2023/02/11 10:16:46;;;;;;;;;;;;;;;;;;6158795;23;19940;-81
2023/02/11 10:19:12;;;;;;;;;;;;;;;;;;6165604;23;20003;-82
2023/02/11 10:21:40;;;;;;;;;;;;;;;;;;6114887;23;19909;-81
2023/02/11 10:24:08;;;;;;;;;;;;;;;;;;6165994;23;19955;-81
2023/02/11 10:26:34;;;;;;;;;;;;;;;;;;6167662;23;19923;-82
2023/02/11 10:29:00;;;;;;;;;;;;;;;;;;6143717;23;19909;-81
2023/02/11 10:31:25;;;;;;;;;;;;;;;;;;6148495;23;19919;-82
2023/02/11 10:33:51;;;;;;;;;;;;;;;;;;6144612;23;19909;-81
2023/02/11 10:36:17;;;;;;;;;;;;;;;;;;6165134;23;19908;-81
2023/02/11 10:38:42;;;;;;;;;;;;;;;;;;6135916;23;19943;-80
2023/02/11 10:41:08;;;;;;;;;;;;;;;;;;6163177;23;19909;-80
2023/02/11 10:43:33;;;;;;;;;;;;;;;;;;6165809;23;19919;-80
2023/02/11 10:45:59;;;;;;;;;;;;;;;;;;6138793;23;19908;-80
2023/02/11 10:48:24;;;;;;;;;;;;;;;;;;6139870;23;19909;-80
2023/02/11 10:50:50;;;;;;;;;;;;;;;;;;6140190;23;19916;-80
2023/02/11 10:53:15;;;;;;;;;;;;;;;;;;6159839;23;19912;-80
2023/02/11 10:55:41;;;;;;;;;;;;;;;;;;6138929;23;19908;-80
2023/02/11 10:58:07;;;;;;;;;;;;;;;;;;6138247;23;19948;-80
2023/02/11 11:00:34;;;;;;;;;;;;;;;;;;6165417;23;19909;-80
2023/02/11 11:03:00;;;;;;;;;;;;;;;;;;6159544;23;20339;-78
2023/02/11 11:05:25;;;;;;;;;;;;;;;;;;6157458;23;20023;-78
2023/02/11 11:07:51;;;;;;;;;;;;;;;;;;6132040;23;19909;-78
2023/02/11 11:10:16;;;;;;;;;;;;;;;;;;6155964;23;19936;-78
2023/02/11 11:12:42;;;;;;;;;;;;;;;;;;6133565;23;19916;-78
2023/02/11 11:15:07;;;;;;;;;;;;;;;;;;6159115;23;20352;-78
2023/02/11 11:17:33;;;;;;;;;;;;;;;;;;6138767;23;19936;-78
2023/02/11 11:19:59;;;;;;;;;;;;;;;;;;6164261;23;20280;-78
2023/02/11 11:22:24;;;;;;;;;;;;;;;;;;6140920;23;19965;-78
2023/02/11 11:27:20;;;;;;;;;;;;;;;;;;6105190;23;19928;-76
2023/02/11 11:29:45;;;;;;;;;;;;;;;;;;6103688;23;19909;-78
2023/02/11 11:32:11;;;;;;;;;;;;;;;;;;6081087;23;19913;-77
2023/02/11 11:34:37;;;;;;;;;;;;;;;;;;6080448;23;19991;-78
2023/02/11 11:37:02;;;;;;;;;;;;;;;;;;6122684;23;19910;-78
2023/02/11 11:39:28;;;;;;;;;;;;;;;;;;6049196;23;19996;-79
2023/02/11 11:41:53;;;;;;;;;;;;;;;;;;6101305;23;20386;-78
2023/02/11 11:44:18;;;;;;;;;;;;;;;;;;6100672;23;19957;-78
2023/02/11 11:46:44;;;;;;;;;;;;;;;;;;6102718;23;20335;-77
2023/02/11 11:49:09;;;;;;;;;;;;;;;;;;6103823;23;19944;-79
2023/02/11 11:51:35;;;;;;;;;;;;;;;;;;6105231;23;19909;-79
2023/02/11 11:54:00;;;;;;;;;;;;;;;;;;6082832;23;19925;-77
2023/02/11 11:56:26;;;;;;;;;;;;;;;;;;6107542;23;19964;-79
2023/02/11 11:58:53;;;;;;;;;;;;;;;;;;6106174;23;19910;-78
2023/02/11 12:01:18;;;;;;;;;;;;;;;;;;6077369;23;19913;-79
2023/02/11 12:03:44;;;;;;;;;;;;;;;;;;6102043;23;19909;-79
2023/02/11 12:06:09;;;;;;;;;;;;;;;;;;6100296;23;20340;-77
2023/02/11 12:08:34;;;;;;;;;;;;;;;;;;6102271;23;20120;-79
2023/02/11 12:11:00;;;;;;;;;;;;;;;;;;6102606;23;20343;-77
2023/02/11 12:13:25;;;;;;;;;;;;;;;;;;6099893;23;20036;-77
2023/02/11 12:15:51;;;;;;;;;;;;;;;;;;6097751;23;20242;-77
2023/02/11 12:18:16;;;;;;;;;;;;;;;;;;6097628;23;19909;-78
2023/02/11 12:20:41;;;;;;;;;;;;;;;;;;6095913;23;19913;-78
2023/02/11 12:23:08;;;;;;;;;;;;;;;;;;6097531;23;19910;-77
2023/02/11 12:25:34;;;;;;;;;;;;;;;;;;6096506;23;19913;-78
2023/02/11 12:28:00;;;;;;;;;;;;;;;;;;6097500;23;19917;-79
2023/02/11 12:30:25;;;;;;;;;;;;;;;;;;6048237;23;19909;-78
2023/02/11 12:32:50;;;;;;;;;;;;;;;;;;6095805;23;19913;-79
2023/02/11 12:35:16;;;;;;;;;;;;;;;;;;6047993;23;19912;-78
2023/02/11 12:37:41;;;;;;;;;;;;;;;;;;6072393;23;20255;-78
2023/02/11 12:40:07;;;;;;;;;;;;;;;;;;6096298;23;20328;-78
2023/02/11 12:45:17;;;;;;;;;;;;;;;;;;6071945;23;19909;-78
2023/02/11 12:47:42;;;;;;;;;;;;;;;;;;6098824;23;19929;-78
2023/02/11 12:50:08;;;;;;;;;;;;;;;;;;6097299;23;19964;-79
2023/02/11 12:52:33;;;;;;;;;;;;;;;;;;6096892;23;20340;-79
2023/02/11 12:54:59;;;;;;;;;;;;;;;;;;6095481;23;19910;-79
2023/02/11 12:57:27;;;;;;;;;;;;;;;;;;6098326;23;19910;-78
2023/02/11 12:59:56;;;;;;;;;;;;;;;;;;6098697;23;19917;-79
2023/02/11 13:02:21;;;;;;;;;;;;;;;;;;6098239;23;19972;-78
2023/02/11 13:04:47;;;;;;;;;;;;;;;;;;6097500;23;19909;-78
2023/02/11 13:07:12;;;;;;;;;;;;;;;;;;6098278;23;19921;-79
2023/02/11 13:09:37;;;;;;;;;;;;;;;;;;6099194;23;19905;-78
2023/02/11 13:13:15;;;;;;;;;;;;;;;;;;6098122;23;20454;-78
2023/02/11 13:14:52;;;;;;;;;;;;;;;;;;6072198;23;19909;-78
2023/02/11 13:17:17;;;;;;;;;;;;;;;;;;6097598;23;19909;-78
2023/02/11 13:19:42;;;;;;;;;;;;;;;;;;6099646;23;19920;-77
2023/02/11 13:22:08;;;;;;;;;;;;;;;;;;6098990;23;20362;-78
2023/02/11 13:24:33;;;;;;;;;;;;;;;;;;6098181;23;20347;-78
2023/02/11 13:26:58;;;;;;;;;;;;;;;;;;6073547;23;20236;-79
2023/02/11 13:29:24;;;;;;;;;;;;;;;;;;6099045;23;19916;-79
2023/02/11 13:31:49;;;;;;;;;;;;;;;;;;6097313;23;20300;-77
2023/02/11 13:34:15;;;;;;;;;;;;;;;;;;6100196;23;19948;-78
2023/02/11 13:36:40;;;;;;;;;;;;;;;;;;6100622;23;19920;-79
2023/02/11 13:39:06;;;;;;;;;;;;;;;;;;6101953;23;19917;-78
2023/02/11 13:41:32;;;;;;;;;;;;;;;;;;6101360;23;19909;-77
2023/02/11 13:43:57;;;;;;;;;;;;;;;;;;6098930;23;19956;-78
2023/02/11 13:46:22;;;;;;;;;;;;;;;;;;6098234;23;20173;-77
2023/02/11 13:48:48;;;;;;;;;;;;;;;;;;6098662;23;19916;-78
2023/02/11 13:51:13;;;;;;;;;;;;;;;;;;6099155;23;20299;-78
2023/02/11 13:53:39;;;;;;;;;;;;;;;;;;6098641;23;19920;-77
2023/02/11 13:56:05;;;;;;;;;;;;;;;;;;6098439;23;19976;-78
2023/02/11 13:58:30;;;;;;;;;;;;;;;;;;6098166;23;20225;-78
2023/02/11 14:00:57;;;;;;;;;;;;;;;;;;6099685;23;19909;-80
2023/02/11 14:08:57;;;;;;;;;;;;;;;;;;6075926;23;19932;-80
2023/02/11 14:11:22;;;;;;;;;;;;;;;;;;6102588;23;20021;-78
2023/02/11 14:13:48;;;;;;;;;;;;;;;;;;6102712;23;19910;-80
2023/02/11 14:16:13;;;;;;;;;;;;;;;;;;6102952;23;19917;-80
2023/02/11 14:18:39;;;;;;;;;;;;;;;;;;6101559;23;19909;-78
2023/02/11 14:21:04;;;;;;;;;;;;;;;;;;6101724;23;19905;-79
2023/02/11 14:23:30;;;;;;;;;;;;;;;;;;6103036;23;19913;-79
2023/02/11 14:25:55;;;;;;;;;;;;;;;;;;6075921;23;19914;-79
2023/02/11 14:28:20;;;;;;;;;;;;;;;;;;6074646;23;19933;-79
2023/02/11 14:30:46;;;;;;;;;;;;;;;;;;6102473;23;19909;-78
2023/02/11 14:33:11;;;;;;;;;;;;;;;;;;6102654;23;19913;-77
2023/02/11 14:35:37;;;;;;;;;;;;;;;;;;6074314;23;19941;-79
2023/02/11 14:38:02;;;;;;;;;;;;;;;;;;6074883;23;20328;-78
2023/02/11 14:40:28;;;;;;;;;;;;;;;;;;6099964;23;19916;-78
2023/02/11 14:42:53;;;;;;;;;;;;;;;;;;6099891;23;19959;-77
2023/02/11 14:45:18;;;;;;;;;;;;;;;;;;6101806;23;19905;-78
2023/02/11 14:47:44;;;;;;;;;;;;;;;;;;6099531;23;19961;-79
2023/02/11 14:50:09;;;;;;;;;;;;;;;;;;6076170;23;19980;-77
2023/02/11 14:52:35;;;;;;;;;;;;;;;;;;6102501;23;19924;-79
2023/02/11 14:55:00;;;;;;;;;;;;;;;;;;6101457;23;19917;-79
2023/02/11 14:57:26;;;;;;;;;;;;;;;;;;6102172;23;19909;-79
2023/02/11 14:59:53;;;;;;;;;;;;;;;;;;6103847;23;19920;-77
2023/02/11 15:02:19;;;;;;;;;;;;;;;;;;6101328;23;19909;-79
2023/02/11 15:04:44;;;;;;;;;;;;;;;;;;6076358;23;19916;-77
2023/02/11 15:07:10;;;;;;;;;;;;;;;;;;6106572;23;19909;-78
2023/02/11 15:09:36;;;;;;;;;;;;;;;;;;6108531;23;19910;-79
2023/02/11 15:12:01;;;;;;;;;;;;;;;;;;6105945;23;20358;-77
2023/02/11 15:14:27;;;;;;;;;;;;;;;;;;6105696;23;19909;-79
2023/02/11 15:16:52;;;;;;;;;;;;;;;;;;6080401;23;20000;-79
2023/02/11 15:19:17;;;;;;;;;;;;;;;;;;6103803;23;19909;-78
2023/02/11 15:21:43;;;;;;;;;;;;;;;;;;6099206;23;20399;-77
2023/02/11 15:24:08;;;;;;;;;;;;;;;;;;6097702;23;19939;-77
2023/02/11 15:26:33;;;;;;;;;;;;;;;;;;6097676;23;19917;-78
2023/02/11 15:28:59;;;;;;;;;;;;;;;;;;6097192;23;19909;-77
2023/02/11 15:31:24;;;;;;;;;;;;;;;;;;6098007;23;19957;-79
2023/02/11 15:33:53;;;;;;;;;;;;;;;;;;6099380;23;20332;-78
2023/02/11 15:36:45;;;;;;;;;;;;;;;;;;6071322;23;19916;-77
2023/02/11 15:39:10;;;;;;;;;;;;;;;;;;6097760;23;20303;-77
2023/02/11 15:41:36;;;;;;;;;;;;;;;;;;6096157;23;19909;-77
2023/02/11 15:44:01;;;;;;;;;;;;;;;;;;6097610;23;19906;-79
2023/02/11 15:46:26;;;;;;;;;;;;;;;;;;6096333;23;20263;-78
2023/02/11 15:48:52;;;;;;;;;;;;;;;;;;6097492;23;20350;-76
2023/02/11 15:51:19;;;;;;;;;;;;;;;;;;6095632;23;20236;-78
2023/02/11 15:53:44;;;;;;;;;;;;;;;;;;6097316;23;20275;-78
2023/02/11 15:56:10;;;;;;;;;;;;;;;;;;6096303;23;19916;-77
2023/02/11 15:58:35;;;;;;;;;;;;;;;;;;6097027;23;19933;-79
2023/02/11 16:01:01;;;;;;;;;;;;;;;;;;6096424;23;19909;-78
2023/02/11 16:03:27;;;;;;;;;;;;;;;;;;6097488;23;20365;-79
2023/02/11 16:05:55;;;;;;;;;;;;;;;;;;6097412;23;19909;-79
2023/02/11 16:08:20;;;;;;;;;;;;;;;;;;6096169;23;19941;-76
2023/02/11 16:10:46;;;;;;;;;;;;;;;;;;6097664;23;19909;-78
2023/02/11 16:13:11;;;;;;;;;;;;;;;;;;6096209;23;20007;-78
2023/02/11 16:15:37;;;;;;;;;;;;;;;;;;6071271;23;19916;-77
2023/02/11 16:18:02;;;;;;;;;;;;;;;;;;6071924;23;20339;-78
2023/02/11 16:20:27;;;;;;;;;;;;;;;;;;6071856;23;19976;-78
2023/02/11 16:22:53;;;;;;;;;;;;;;;;;;6071382;23;19920;-77
2023/02/11 16:25:20;;;;;;;;;;;;;;;;;;6094435;23;21091;-79
2023/02/11 16:27:46;;;;;;;;;;;;;;;;;;6096923;23;19909;-81
2023/02/11 16:30:11;;;;;;;;;;;;;;;;;;6071587;23;19909;-79
2023/02/11 16:32:37;;;;;;;;;;;;;;;;;;6096885;23;19963;-79
2023/02/11 16:35:02;;;;;;;;;;;;;;;;;;6097140;23;19909;-79
2023/02/11 16:37:28;;;;;;;;;;;;;;;;;;6071832;23;20320;-78
2023/02/11 16:39:53;;;;;;;;;;;;;;;;;;6097143;23;19992;-78
2023/02/11 16:42:19;;;;;;;;;;;;;;;;;;6096703;23;19948;-78
2023/02/11 16:44:44;;;;;;;;;;;;;;;;;;6096213;23;19916;-78
2023/02/11 16:47:10;;;;;;;;;;;;;;;;;;6096595;23;19960;-76
2023/02/11 16:49:35;;;;;;;;;;;;;;;;;;6099588;23;19916;-79
2023/02/11 16:52:01;;;;;;;;;;;;;;;;;;6073647;23;20018;-79